This is the latest recevied weather packets stored in our database for station/object VU2EXP-13. If no packets are shown the sender has not sent any weather packets the latest 10 day(s).
| Time | Temp. | Humidity | Pressure | Rain* | Wind** | Luminosity | Snow |
|---|---|---|---|---|---|---|---|
| 1788339787 | 32.22° C | 50% | 991.3 hPa | - | - | - | - |
| 1788338887 | 33.33° C | 47% | 991.3 hPa | - | - | - | - |
| 1788337988 | 33.89° C | 46% | 991.6 hPa | - | - | - | - |
| 1788337087 | 33.33° C | 48% | 991.8 hPa | - | - | - | - |
| 1788336187 | 32.78° C | 50% | 991.9 hPa | - | - | - | - |
| 1788335286 | 33.33° C | 49% | 992.1 hPa | - | - | - | - |
| 1788334386 | 33.33° C | 49% | 992.3 hPa | - | - | - | - |
| 1788333486 | 33.33° C | 48% | 992.5 hPa | - | - | - | - |
| 1788332586 | 33.89° C | 49% | 992.7 hPa | - | - | - | - |
| 1788331686 | 32.22° C | 53% | 992.9 hPa | - | - | - | - |
| 1788330786 | 32.22° C | 53% | 993 hPa | - | - | - | - |
| 1788329886 | 32.22° C | 52% | 993.1 hPa | - | - | - | - |
| 1788328985 | 31.67° C | 53% | 993.3 hPa | - | - | - | - |
| 1788328086 | 31.67° C | 54% | 993.4 hPa | - | - | - | - |
| 1788327185 | 31.67° C | 55% | 993.4 hPa | - | - | - | - |
| 1788326286 | 31.67° C | 55% | 993.5 hPa | - | - | - | - |
| 1788325397 | 31.11° C | 57% | 988.4 hPa | - | - | - | - |
| 1788325093 | 31.67° C | 57% | 993.6 hPa | - | - | - | - |
| 1788324192 | 31.11° C | 59% | 993.5 hPa | - | - | - | - |
| 1788323293 | 30.56° C | 60% | 993.5 hPa | - | - | - | - |
| 1788322392 | 30.56° C | 61% | 993.4 hPa | - | - | - | - |
| 1788321492 | 30° C | 63% | 993.2 hPa | - | - | - | - |
| 1788319758 | 29.44° C | 67% | 993.2 hPa | - | - | - | - |
| 1788318857 | 29.44° C | 69% | 993.1 hPa | - | - | - | - |
| 1788317957 | 28.89° C | 70% | 992.9 hPa | - | - | - | - |
* Rain since midnight (hover to see other rain measurements)
** Current wind speed in m/s (hover to see current wind gust speed)